createdAt,value
2018-07-30T00:00:51.944Z,100.00
2018-07-30T00:03:18.877Z,100.00
2018-07-30T00:05:45.799Z,100.00
2018-07-30T00:08:12.742Z,100.00
2018-07-30T00:10:39.653Z,100.00
2018-07-30T00:13:06.599Z,100.00
2018-07-30T00:15:33.542Z,100.00
2018-07-30T00:18:00.461Z,100.00
2018-07-30T00:20:29.200Z,100.00
2018-07-30T00:22:56.785Z,100.00
2018-07-30T00:25:23.768Z,100.00
2018-07-30T00:27:50.825Z,100.00
2018-07-30T00:30:17.704Z,100.00
2018-07-30T00:32:45.361Z,100.00
2018-07-30T00:35:12.838Z,100.00
2018-07-30T00:37:40.356Z,100.00
2018-07-30T00:40:10.628Z,100.00
2018-07-30T00:42:37.692Z,100.00
2018-07-30T00:45:04.641Z,100.00
2018-07-30T00:47:31.547Z,100.00
2018-07-30T00:49:58.457Z,100.00
2018-07-30T00:52:25.388Z,100.00
2018-07-30T00:54:52.655Z,100.00
2018-07-30T00:57:19.593Z,100.00
2018-07-30T00:59:46.502Z,100.00
2018-07-30T01:02:13.421Z,100.00
2018-07-30T01:04:40.316Z,100.00
2018-07-30T01:07:07.234Z,100.00
2018-07-30T01:09:34.164Z,100.00
2018-07-30T01:12:01.077Z,100.00
2018-07-30T01:14:28.091Z,100.00
2018-07-30T01:16:54.925Z,100.00
2018-07-30T01:19:21.901Z,100.00
2018-07-30T01:21:48.815Z,100.00
2018-07-30T01:24:15.710Z,100.00
2018-07-30T01:26:42.594Z,100.00
2018-07-30T01:29:09.497Z,100.00
2018-07-30T01:31:36.403Z,100.00
2018-07-30T01:34:03.352Z,100.00
2018-07-30T01:36:30.266Z,100.00
2018-07-30T01:38:57.172Z,100.00
2018-07-30T01:41:24.295Z,100.00
2018-07-30T01:43:51.209Z,100.00
2018-07-30T01:46:18.111Z,100.00
2018-07-30T01:48:45.022Z,100.00
2018-07-30T01:51:11.948Z,100.00
2018-07-30T01:53:38.873Z,100.00
2018-07-30T01:56:05.813Z,100.00
2018-07-30T01:58:32.753Z,100.00
2018-07-30T02:00:59.684Z,100.00
2018-07-30T02:03:26.624Z,100.00
2018-07-30T02:05:54.973Z,100.00
2018-07-30T02:08:21.916Z,100.00
2018-07-30T02:10:49.966Z,100.00
2018-07-30T02:13:16.928Z,100.00
2018-07-30T02:15:43.899Z,100.00
2018-07-30T02:18:12.526Z,100.00
2018-07-30T02:20:39.484Z,100.00
2018-07-30T02:23:06.446Z,100.00
2018-07-30T02:25:33.413Z,100.00
2018-07-30T02:28:00.395Z,100.00
2018-07-30T02:30:27.328Z,100.00
2018-07-30T02:32:54.245Z,100.00
2018-07-30T02:35:21.208Z,100.00
2018-07-30T02:37:48.157Z,100.00
2018-07-30T02:40:15.106Z,100.00
2018-07-30T02:42:42.025Z,100.00
2018-07-30T02:45:09.125Z,100.00
2018-07-30T02:47:36.051Z,100.00
2018-07-30T02:50:03.376Z,100.00
2018-07-30T02:52:30.764Z,100.00
2018-07-30T02:54:57.697Z,100.00
2018-07-30T02:57:24.616Z,100.00
2018-07-30T02:59:51.578Z,100.00
2018-07-30T03:02:18.540Z,100.00
2018-07-30T03:04:45.448Z,100.00
2018-07-30T03:07:12.408Z,100.00
2018-07-30T03:09:39.332Z,100.00
2018-07-30T03:12:06.260Z,100.00
2018-07-30T03:14:33.179Z,100.00
2018-07-30T03:17:00.149Z,100.00
2018-07-30T03:19:27.088Z,100.00
2018-07-30T03:21:54.034Z,100.00
2018-07-30T03:24:20.996Z,100.00
2018-07-30T03:26:47.933Z,100.00
2018-07-30T03:29:14.860Z,100.00
2018-07-30T03:31:41.817Z,100.00
2018-07-30T03:34:12.250Z,100.00
2018-07-30T03:36:40.012Z,100.00
2018-07-30T03:39:07.731Z,100.00
2018-07-30T03:41:34.660Z,100.00
2018-07-30T03:44:01.604Z,100.00
2018-07-30T03:46:28.532Z,100.00
2018-07-30T03:48:55.454Z,100.00
2018-07-30T03:51:22.475Z,100.00
2018-07-30T03:53:49.411Z,100.00
2018-07-30T03:56:16.456Z,100.00
2018-07-30T03:58:43.405Z,100.00
2018-07-30T04:01:10.341Z,100.00
2018-07-30T04:03:37.285Z,100.00
2018-07-30T04:06:04.358Z,100.00
2018-07-30T04:08:31.256Z,100.00
2018-07-30T04:10:58.181Z,100.00
2018-07-30T04:13:25.142Z,100.00
2018-07-30T04:15:52.049Z,100.00
2018-07-30T04:18:18.979Z,100.00
2018-07-30T04:20:45.957Z,100.00
2018-07-30T04:23:12.868Z,100.00
2018-07-30T04:25:39.780Z,100.00
2018-07-30T04:28:06.700Z,100.00
2018-07-30T04:30:33.657Z,100.00
2018-07-30T04:33:00.581Z,100.00
2018-07-30T04:35:27.493Z,100.00
2018-07-30T04:37:54.444Z,100.00
2018-07-30T04:40:21.397Z,100.00
2018-07-30T04:42:48.361Z,100.00
2018-07-30T04:45:15.300Z,100.00
2018-07-30T04:47:42.254Z,100.00
2018-07-30T04:50:09.221Z,100.00
2018-07-30T04:52:36.139Z,100.00
2018-07-30T04:55:03.155Z,100.00
2018-07-30T04:57:30.108Z,100.00
2018-07-30T04:59:57.084Z,100.00
2018-07-30T05:02:24.014Z,100.00
2018-07-30T05:04:50.980Z,100.00
2018-07-30T05:07:17.928Z,100.00
2018-07-30T05:09:44.868Z,100.00
2018-07-30T05:12:11.792Z,100.00
2018-07-30T05:14:38.720Z,100.00
2018-07-30T05:17:05.876Z,100.00
2018-07-30T05:19:32.824Z,100.00
2018-07-30T05:21:59.769Z,100.00
2018-07-30T05:24:26.682Z,100.00
2018-07-30T05:26:53.592Z,100.00
2018-07-30T05:29:20.524Z,100.00
2018-07-30T05:31:47.440Z,100.00
2018-07-30T05:34:14.365Z,100.00
2018-07-30T05:36:41.272Z,100.00
2018-07-30T05:39:09.490Z,100.00
2018-07-30T05:41:36.400Z,100.00
2018-07-30T05:44:03.361Z,100.00
2018-07-30T05:46:30.317Z,100.00
2018-07-30T05:48:57.265Z,100.00
2018-07-30T05:51:24.220Z,100.00
2018-07-30T05:53:51.149Z,100.00
2018-07-30T05:56:18.067Z,100.00
2018-07-30T05:58:45.006Z,100.00
2018-07-30T06:01:11.946Z,100.00
2018-07-30T06:03:38.876Z,100.00
2018-07-30T06:06:06.053Z,100.00
2018-07-30T06:08:33.009Z,100.00
2018-07-30T06:10:59.952Z,100.00
2018-07-30T06:13:26.849Z,100.00
2018-07-30T06:15:53.793Z,100.00
2018-07-30T06:18:20.727Z,100.00
2018-07-30T06:20:47.671Z,100.00
2018-07-30T06:23:14.627Z,100.00
2018-07-30T06:25:41.571Z,100.00
2018-07-30T06:28:08.488Z,100.00
2018-07-30T06:30:35.421Z,100.00
2018-07-30T06:33:02.326Z,100.00
2018-07-30T06:35:29.261Z,100.00
2018-07-30T06:37:56.175Z,100.00
2018-07-30T06:40:23.092Z,94.90
2018-07-30T06:42:50.025Z,95.25
2018-07-30T06:45:16.957Z,95.25
2018-07-30T06:47:43.874Z,93.98
2018-07-30T06:50:10.795Z,93.28
2018-07-30T06:52:37.705Z,91.44
2018-07-30T06:55:05.723Z,88.89
2018-07-30T06:57:32.676Z,89.31
2018-07-30T06:59:59.596Z,88.86
2018-07-30T07:02:26.534Z,89.65
2018-07-30T07:04:53.443Z,84.79
2018-07-30T07:07:20.393Z,84.33
2018-07-30T07:09:47.341Z,83.49
2018-07-30T07:12:14.305Z,82.30
2018-07-30T07:14:41.240Z,84.40
2018-07-30T07:17:08.718Z,80.50
2018-07-30T07:19:35.657Z,83.24
2018-07-30T07:22:02.729Z,81.80
2018-07-30T07:24:29.544Z,82.30
2018-07-30T07:26:56.508Z,83.92
2018-07-30T07:29:23.408Z,85.11
2018-07-30T07:31:50.364Z,80.97
2018-07-30T07:34:17.320Z,83.11
2018-07-30T07:36:44.270Z,80.67
2018-07-30T07:39:11.608Z,78.88
2018-07-30T07:41:38.601Z,78.21
2018-07-30T07:44:05.570Z,77.93
2018-07-30T07:46:32.522Z,77.46
2018-07-30T07:48:59.487Z,74.68
2018-07-30T07:51:26.460Z,76.37
2018-07-30T07:53:53.391Z,76.47
2018-07-30T07:56:20.344Z,76.82
2018-07-30T07:58:47.339Z,77.08
2018-07-30T08:01:14.249Z,76.77
2018-07-30T08:03:41.170Z,73.39
2018-07-30T08:06:08.381Z,72.06
2018-07-30T08:08:35.291Z,71.82
2018-07-30T08:11:02.349Z,72.92
2018-07-30T08:13:29.206Z,72.80
2018-07-30T08:15:56.144Z,75.11
2018-07-30T08:18:23.091Z,71.51
2018-07-30T08:20:50.013Z,73.73
2018-07-30T08:23:16.973Z,71.90
2018-07-30T08:25:43.940Z,72.46
2018-07-30T08:28:10.904Z,70.99
2018-07-30T08:30:37.859Z,73.67
2018-07-30T08:33:04.888Z,71.11
2018-07-30T08:35:31.750Z,72.49
2018-07-30T08:37:58.728Z,72.41
2018-07-30T08:40:26.457Z,73.12
2018-07-30T08:42:53.378Z,69.50
2018-07-30T08:45:20.325Z,72.23
2018-07-30T08:47:47.302Z,69.94
2018-07-30T08:50:14.225Z,69.25
2018-07-30T08:52:41.148Z,69.62
2018-07-30T08:55:08.077Z,71.68
2018-07-30T08:57:35.000Z,64.08
2018-07-30T09:00:01.968Z,62.85
2018-07-30T09:02:28.907Z,62.95
2018-07-30T09:04:55.855Z,61.73
2018-07-30T09:07:22.810Z,63.96
2018-07-30T09:09:49.804Z,63.16
2018-07-30T09:12:16.741Z,62.34
2018-07-30T09:14:43.684Z,61.99
2018-07-30T09:17:10.667Z,61.87
2018-07-30T09:19:37.598Z,60.89
2018-07-30T09:22:04.701Z,63.87
2018-07-30T09:24:31.638Z,61.50
2018-07-30T09:26:58.667Z,58.37
2018-07-30T09:29:25.594Z,56.72
2018-07-30T09:31:52.642Z,56.55
2018-07-30T09:34:21.542Z,57.92
2018-07-30T09:36:48.913Z,53.13
2018-07-30T09:39:15.930Z,54.82
2018-07-30T09:41:42.826Z,54.33
2018-07-30T09:44:09.800Z,52.44
2018-07-30T09:46:36.857Z,51.12
2018-07-30T09:49:03.821Z,54.11
2018-07-30T09:51:30.762Z,56.17
2018-07-30T09:53:57.671Z,54.65
2018-07-30T09:56:24.693Z,53.08
2018-07-30T09:58:51.627Z,52.54
2018-07-30T10:01:24.423Z,53.01
2018-07-30T10:03:51.661Z,52.13
2018-07-30T10:06:18.680Z,51.61
2018-07-30T10:08:45.545Z,48.43
2018-07-30T10:11:12.508Z,49.06
2018-07-30T10:13:39.465Z,47.25
2018-07-30T10:16:06.452Z,47.04
2018-07-30T10:18:33.397Z,47.32
2018-07-30T10:21:00.320Z,50.55
2018-07-30T10:23:27.264Z,52.34
2018-07-30T10:25:54.192Z,51.22
2018-07-30T10:28:21.132Z,50.97
2018-07-30T10:30:48.168Z,51.84
2018-07-30T10:33:15.032Z,51.45
2018-07-30T10:35:41.945Z,51.88
2018-07-30T10:38:08.932Z,52.25
2018-07-30T10:40:35.876Z,52.58
2018-07-30T10:43:02.803Z,53.84
2018-07-30T10:45:29.724Z,53.33
2018-07-30T10:47:56.666Z,50.81
2018-07-30T10:50:23.617Z,53.16
2018-07-30T10:52:50.529Z,52.55
2018-07-30T10:55:17.487Z,51.58
2018-07-30T10:57:44.764Z,49.89
2018-07-30T11:00:11.712Z,50.56
2018-07-30T11:02:38.646Z,51.09
2018-07-30T11:05:05.988Z,51.96
2018-07-30T11:07:32.906Z,49.18
2018-07-30T11:09:59.865Z,49.02
2018-07-30T11:12:26.841Z,49.92
2018-07-30T11:14:53.825Z,50.40
2018-07-30T11:17:20.718Z,47.70
2018-07-30T11:19:47.660Z,50.69
2018-07-30T11:22:14.619Z,49.50
2018-07-30T11:24:41.565Z,48.41
2018-07-30T11:27:08.494Z,48.82
2018-07-30T11:29:35.416Z,48.61
2018-07-30T11:32:02.357Z,48.72
2018-07-30T11:34:29.312Z,48.42
2018-07-30T11:36:56.276Z,50.07
2018-07-30T11:39:23.244Z,48.55
2018-07-30T11:41:50.167Z,47.62
2018-07-30T11:44:17.109Z,47.24
2018-07-30T11:46:44.036Z,44.90
2018-07-30T11:49:10.996Z,46.53
2018-07-30T11:51:37.943Z,44.83
2018-07-30T11:54:04.903Z,45.90
2018-07-30T11:56:31.835Z,44.32
2018-07-30T11:58:58.946Z,43.47
2018-07-30T12:01:26.339Z,46.47
2018-07-30T12:03:53.300Z,46.85
2018-07-30T12:06:20.277Z,49.37
2018-07-30T12:08:47.245Z,49.14
2018-07-30T12:11:14.149Z,50.16
2018-07-30T12:13:41.197Z,50.59
2018-07-30T12:16:08.153Z,50.36
2018-07-30T12:18:35.083Z,47.59
2018-07-30T12:21:02.033Z,46.40
2018-07-30T12:23:28.943Z,45.84
2018-07-30T12:25:55.852Z,47.51
2018-07-30T12:28:22.764Z,48.89
2018-07-30T12:30:49.689Z,46.59
2018-07-30T12:33:16.610Z,46.20
2018-07-30T12:35:43.617Z,47.68
2018-07-30T12:38:10.554Z,48.65
2018-07-30T12:40:37.484Z,47.67
2018-07-30T12:43:05.115Z,49.00
2018-07-30T12:45:37.706Z,48.41
2018-07-30T12:48:04.717Z,46.10
2018-07-30T12:50:31.803Z,46.51
2018-07-30T12:52:58.665Z,46.36
2018-07-30T12:55:25.682Z,45.81
2018-07-30T12:57:52.596Z,46.64
2018-07-30T13:00:19.529Z,44.78
2018-07-30T13:02:46.594Z,43.73
2018-07-30T13:05:13.527Z,44.05
2018-07-30T13:07:40.468Z,43.52
2018-07-30T13:10:07.584Z,42.72
2018-07-30T13:12:34.489Z,42.50
2018-07-30T13:15:01.491Z,41.66
2018-07-30T13:17:28.416Z,46.31
2018-07-30T13:19:55.408Z,46.73
2018-07-30T13:22:22.333Z,46.55
2018-07-30T13:24:49.236Z,46.26
2018-07-30T13:27:16.215Z,42.40
2018-07-30T13:29:43.170Z,41.37
2018-07-30T13:32:10.104Z,42.77
2018-07-30T13:34:37.092Z,39.85
2018-07-30T13:37:04.060Z,39.76
2018-07-30T13:39:30.974Z,40.89
2018-07-30T13:41:57.917Z,40.67
2018-07-30T13:44:24.869Z,40.97
2018-07-30T13:46:51.837Z,40.56
2018-07-30T13:49:18.744Z,38.91
2018-07-30T13:51:45.724Z,38.63
2018-07-30T13:54:12.680Z,38.91
2018-07-30T13:56:39.664Z,39.22
2018-07-30T13:59:06.671Z,38.55
2018-07-30T14:01:33.638Z,39.52
2018-07-30T14:04:00.563Z,39.70
2018-07-30T14:06:27.569Z,39.55
2018-07-30T14:08:54.456Z,40.08
2018-07-30T14:11:21.393Z,40.78
2018-07-30T14:13:48.352Z,41.61
2018-07-30T14:16:15.320Z,39.42
2018-07-30T14:18:42.255Z,40.79
2018-07-30T14:21:09.216Z,38.58
2018-07-30T14:23:36.267Z,36.89
2018-07-30T14:26:03.372Z,37.06
2018-07-30T14:28:30.354Z,38.62
2018-07-30T14:30:57.247Z,40.29
2018-07-30T14:33:24.292Z,39.26
2018-07-30T14:35:51.235Z,38.95
2018-07-30T14:38:18.177Z,37.95
2018-07-30T14:40:45.156Z,37.24
2018-07-30T14:43:12.112Z,37.31
2018-07-30T14:45:39.081Z,37.89
2018-07-30T14:48:06.071Z,37.28
2018-07-30T14:50:33.038Z,38.77
2018-07-30T14:52:59.995Z,38.08
2018-07-30T14:55:26.944Z,38.73
2018-07-30T14:57:53.876Z,38.35
2018-07-30T15:00:20.798Z,38.12
2018-07-30T15:02:47.748Z,39.18
2018-07-30T15:05:19.297Z,38.64
2018-07-30T15:07:46.257Z,37.95
2018-07-30T15:10:13.184Z,36.68
2018-07-30T15:12:40.222Z,37.01
2018-07-30T15:15:07.140Z,37.18
2018-07-30T15:17:34.068Z,38.69
2018-07-30T15:20:01.028Z,38.55
2018-07-30T15:22:27.964Z,37.98
2018-07-30T15:24:54.984Z,39.73
2018-07-30T15:27:21.930Z,39.90
2018-07-30T15:29:48.854Z,39.22
2018-07-30T15:32:15.883Z,39.91
2018-07-30T15:34:42.876Z,39.38
2018-07-30T15:37:09.788Z,40.29
2018-07-30T15:39:36.749Z,39.51
2018-07-30T15:42:03.711Z,38.25
2018-07-30T15:44:30.653Z,38.95
2018-07-30T15:46:57.611Z,40.12
2018-07-30T15:49:24.523Z,40.17
2018-07-30T15:51:51.455Z,40.67
2018-07-30T15:54:18.405Z,41.63
2018-07-30T15:56:45.332Z,42.67
2018-07-30T15:59:12.708Z,42.47
2018-07-30T16:01:39.653Z,42.43
2018-07-30T16:04:06.600Z,42.00
2018-07-30T16:06:33.530Z,40.17
2018-07-30T16:09:00.457Z,42.89
2018-07-30T16:11:27.404Z,42.62
2018-07-30T16:13:54.360Z,43.62
2018-07-30T16:16:21.272Z,42.48
2018-07-30T16:18:48.184Z,42.61
2018-07-30T16:21:15.116Z,42.69
2018-07-30T16:23:42.023Z,43.82
2018-07-30T16:26:08.936Z,44.56
2018-07-30T16:28:35.869Z,41.63
2018-07-30T16:31:02.806Z,40.69
2018-07-30T16:33:29.743Z,41.54
2018-07-30T16:35:56.666Z,39.55
2018-07-30T16:38:23.584Z,40.77
2018-07-30T16:40:50.507Z,41.27
2018-07-30T16:43:17.464Z,40.66
2018-07-30T16:45:44.392Z,40.04
2018-07-30T16:48:11.336Z,40.57
2018-07-30T16:50:38.247Z,41.08
2018-07-30T16:53:05.189Z,41.72
2018-07-30T16:55:32.121Z,42.13
2018-07-30T16:57:59.080Z,41.76
2018-07-30T17:00:25.989Z,42.67
2018-07-30T17:02:52.912Z,42.20
2018-07-30T17:05:19.855Z,42.36
2018-07-30T17:07:47.150Z,42.25
2018-07-30T17:10:14.286Z,43.33
2018-07-30T17:12:41.264Z,43.98
2018-07-30T17:15:08.196Z,44.40
2018-07-30T17:17:35.157Z,45.25
2018-07-30T17:20:02.494Z,45.44
2018-07-30T17:22:29.568Z,45.88
2018-07-30T17:24:57.832Z,46.42
2018-07-30T17:27:24.904Z,47.70
2018-07-30T17:29:51.855Z,47.70
2018-07-30T17:32:18.818Z,47.83
2018-07-30T17:34:45.741Z,47.50
2018-07-30T17:37:12.682Z,47.94
2018-07-30T17:39:39.639Z,47.64
2018-07-30T17:42:06.664Z,47.79
2018-07-30T17:44:33.627Z,46.53
2018-07-30T17:47:00.604Z,46.20
2018-07-30T17:49:27.540Z,47.54
2018-07-30T17:51:54.511Z,50.44
2018-07-30T17:54:21.574Z,52.69
2018-07-30T17:56:48.693Z,55.83
2018-07-30T17:59:15.633Z,57.04
2018-07-30T18:01:42.804Z,57.75
2018-07-30T18:04:09.755Z,58.50
2018-07-30T18:06:36.680Z,59.17
2018-07-30T18:09:05.881Z,58.98
2018-07-30T18:11:32.949Z,59.52
2018-07-30T18:13:59.873Z,60.72
2018-07-30T18:16:26.790Z,62.31
2018-07-30T18:18:53.725Z,62.85
2018-07-30T18:21:20.714Z,62.79
2018-07-30T18:23:47.698Z,61.98
2018-07-30T18:26:14.576Z,62.06
2018-07-30T18:28:41.495Z,63.58
2018-07-30T18:31:08.392Z,63.61
2018-07-30T18:33:35.380Z,65.59
2018-07-30T18:36:02.273Z,66.34
2018-07-30T18:38:29.171Z,67.26
2018-07-30T18:40:56.091Z,67.77
2018-07-30T18:43:23.013Z,68.94
2018-07-30T18:45:49.952Z,69.31
2018-07-30T18:48:16.895Z,70.39
2018-07-30T18:50:43.823Z,71.61
2018-07-30T18:53:10.740Z,71.81
2018-07-30T18:55:37.675Z,72.66
2018-07-30T18:58:04.712Z,72.85
2018-07-30T19:00:31.665Z,72.77
2018-07-30T19:02:58.641Z,73.73
2018-07-30T19:05:25.584Z,75.03
2018-07-30T19:07:52.527Z,74.96
2018-07-30T19:10:19.459Z,76.31
2018-07-30T19:12:46.404Z,76.58
2018-07-30T19:15:13.344Z,77.80
2018-07-30T19:17:40.280Z,78.81
2018-07-30T19:20:07.245Z,79.00
2018-07-30T19:22:34.172Z,80.68
2018-07-30T19:25:01.112Z,80.98
2018-07-30T19:27:28.050Z,81.43
2018-07-30T19:29:55.002Z,81.83
2018-07-30T19:32:22.023Z,82.76
2018-07-30T19:34:48.909Z,83.37
2018-07-30T19:37:15.836Z,83.19
2018-07-30T19:39:42.840Z,83.91
2018-07-30T19:42:09.756Z,84.43
2018-07-30T19:44:36.755Z,84.66
2018-07-30T19:47:03.629Z,85.36
2018-07-30T19:49:30.635Z,86.18
2018-07-30T19:51:57.669Z,86.36
2018-07-30T19:54:24.620Z,86.71
2018-07-30T19:56:51.588Z,87.02
2018-07-30T19:59:18.502Z,87.63
2018-07-30T20:01:45.433Z,88.10
2018-07-30T20:04:12.376Z,88.78
2018-07-30T20:06:39.315Z,90.25
2018-07-30T20:09:08.153Z,90.41
2018-07-30T20:11:35.084Z,90.59
2018-07-30T20:14:02.051Z,90.56
2018-07-30T20:16:28.994Z,91.05
2018-07-30T20:18:55.920Z,90.36
2018-07-30T20:21:22.836Z,90.90
2018-07-30T20:23:49.760Z,90.26
2018-07-30T20:26:16.739Z,90.96
2018-07-30T20:28:43.687Z,91.55
2018-07-30T20:31:15.010Z,91.01
2018-07-30T20:33:41.950Z,91.84
2018-07-30T20:36:08.970Z,92.16
2018-07-30T20:38:35.880Z,92.50
2018-07-30T20:41:02.833Z,92.74
2018-07-30T20:43:29.784Z,92.16
2018-07-30T20:45:56.710Z,91.39
2018-07-30T20:48:23.619Z,91.35
2018-07-30T20:50:50.576Z,92.29
2018-07-30T20:53:17.509Z,92.00
2018-07-30T20:55:44.436Z,91.78
2018-07-30T20:58:11.350Z,92.70
2018-07-30T21:00:38.299Z,93.29
2018-07-30T21:03:05.222Z,93.24
2018-07-30T21:05:36.778Z,94.76
2018-07-30T21:08:03.747Z,95.48
2018-07-30T21:10:30.691Z,95.87
2018-07-30T21:12:57.627Z,95.90
2018-07-30T21:15:24.589Z,96.24
2018-07-30T21:17:51.560Z,96.16
2018-07-30T21:20:18.490Z,97.50
2018-07-30T21:22:45.446Z,98.10
2018-07-30T21:25:12.431Z,98.42
2018-07-30T21:27:39.343Z,99.22
2018-07-30T21:30:07.011Z,100.00
2018-07-30T21:32:34.174Z,100.00
2018-07-30T21:35:01.113Z,100.00
2018-07-30T21:37:28.073Z,100.00
2018-07-30T21:39:55.026Z,100.00
2018-07-30T21:42:21.985Z,100.00
2018-07-30T21:44:48.920Z,100.00
2018-07-30T21:47:16.803Z,100.00
2018-07-30T21:49:43.699Z,100.00
2018-07-30T21:52:10.643Z,100.00
2018-07-30T21:54:37.591Z,100.00
2018-07-30T21:57:04.624Z,100.00
2018-07-30T21:59:31.600Z,100.00
2018-07-30T22:01:58.584Z,100.00
2018-07-30T22:04:26.264Z,100.00
2018-07-30T22:06:53.201Z,100.00
2018-07-30T22:09:20.159Z,100.00
2018-07-30T22:11:47.510Z,100.00
2018-07-30T22:14:14.573Z,100.00
2018-07-30T22:16:42.379Z,100.00
2018-07-30T22:19:10.072Z,100.00
2018-07-30T22:21:37.009Z,100.00
2018-07-30T22:24:04.218Z,100.00
2018-07-30T22:26:31.160Z,100.00
2018-07-30T22:28:58.103Z,100.00
2018-07-30T22:31:25.094Z,100.00
2018-07-30T22:33:52.381Z,100.00
2018-07-30T22:36:20.182Z,100.00
2018-07-30T22:38:47.109Z,100.00
2018-07-30T22:41:14.043Z,100.00
2018-07-30T22:43:41.274Z,100.00
2018-07-30T22:46:08.229Z,100.00
2018-07-30T22:48:35.128Z,100.00
2018-07-30T22:51:02.106Z,100.00
2018-07-30T22:53:29.028Z,100.00
2018-07-30T22:55:55.976Z,100.00
2018-07-30T22:58:23.062Z,100.00
2018-07-30T23:00:50.022Z,100.00
2018-07-30T23:03:16.977Z,100.00
2018-07-30T23:05:43.904Z,100.00
2018-07-30T23:08:10.819Z,100.00
2018-07-30T23:10:37.752Z,100.00
2018-07-30T23:13:04.792Z,100.00
2018-07-30T23:15:31.765Z,100.00
2018-07-30T23:17:58.752Z,100.00
2018-07-30T23:20:25.685Z,100.00
2018-07-30T23:22:52.624Z,100.00
2018-07-30T23:25:19.520Z,100.00
2018-07-30T23:27:46.456Z,100.00
2018-07-30T23:30:13.384Z,100.00
2018-07-30T23:32:40.333Z,100.00
2018-07-30T23:35:07.260Z,100.00
2018-07-30T23:37:34.189Z,100.00
2018-07-30T23:40:01.084Z,100.00
2018-07-30T23:42:28.086Z,100.00
2018-07-30T23:44:55.034Z,100.00
2018-07-30T23:47:21.992Z,100.00
2018-07-30T23:49:48.922Z,100.00
2018-07-30T23:52:15.899Z,100.00
2018-07-30T23:54:42.820Z,100.00
2018-07-30T23:57:09.760Z,100.00
2018-07-30T23:59:36.683Z,100.00
